Main page
Satellite images Climate Cyclones Lightning AirportsFAQ Languages Contact Newsletter About
Weather : Europe Africa North America South America Asia Australia-Oceania Others

hanoi-vn, Hanoi, Noi Bai International Airport

latitude: , longitude: Vietnam, elevation: 21-01N m


METAR: VVNB 211930Z 03007KT 350V050 9999 FEW019 BKN040 18/12 Q1020 NOSIG